Billings, New York
Current Conditions -  °F | °C
As of 12:53 PM on Thursday 29 Jan 2015 (Local Time) from KPOU Reporting Station
Clear Clear  
Wind Chill: 28°   Ceiling: Unl
Heat Index: 28°   Visibility: 10mi
Dew Point:   Wind: 0mph
Humidity: 34%   Direction: NA
Pressure: 30.21"   Gusts: NA
Location:  41.67°N, 73.76°W
Report Text: KPOU 291753Z 00000KT 10SM CLR M02/M16 A3021 RMK AO2 SLP231 T10221161 11022 21200 58040
Loading
Personal Weather Stations






























Interactive Weather Map New forecast layout! Learn more

10-Day Weather Forecast

Advertisements
Track Severe Weather on mobile